sensor_id;sensor_type;location;lat;lon;timestamp;P1;durP1;ratioP1;P2;durP2;ratioP2
55589;SDS011;41452;42.780;23.116;2024-02-21T00:01:52;8.80;;;4.95;;
55589;SDS011;41452;42.780;23.116;2024-02-21T00:04:17;9.93;;;5.43;;
55589;SDS011;41452;42.780;23.116;2024-02-21T00:06:42;10.20;;;5.25;;
55589;SDS011;41452;42.780;23.116;2024-02-21T00:09:08;9.70;;;5.63;;
55589;SDS011;41452;42.780;23.116;2024-02-21T00:11:34;9.32;;;4.93;;
55589;SDS011;41452;42.780;23.116;2024-02-21T00:14:00;9.30;;;5.72;;
55589;SDS011;41452;42.780;23.116;2024-02-21T00:16:25;8.35;;;4.88;;
55589;SDS011;41452;42.780;23.116;2024-02-21T00:18:51;10.38;;;5.25;;
55589;SDS011;41452;42.780;23.116;2024-02-21T00:21:16;12.18;;;6.75;;
55589;SDS011;41452;42.780;23.116;2024-02-21T00:23:43;9.85;;;5.35;;
55589;SDS011;41452;42.780;23.116;2024-02-21T00:26:11;8.18;;;5.07;;
55589;SDS011;41452;42.780;23.116;2024-02-21T00:28:37;9.50;;;5.28;;
55589;SDS011;41452;42.780;23.116;2024-02-21T00:31:03;8.75;;;4.90;;
55589;SDS011;41452;42.780;23.116;2024-02-21T00:33:28;9.20;;;5.07;;
55589;SDS011;41452;42.780;23.116;2024-02-21T00:35:54;7.95;;;4.85;;
55589;SDS011;41452;42.780;23.116;2024-02-21T00:38:19;8.27;;;5.00;;
55589;SDS011;41452;42.780;23.116;2024-02-21T00:40:45;10.18;;;4.93;;
55589;SDS011;41452;42.780;23.116;2024-02-21T00:43:11;10.15;;;5.18;;
55589;SDS011;41452;42.780;23.116;2024-02-21T00:45:36;8.75;;;4.78;;
55589;SDS011;41452;42.780;23.116;2024-02-21T00:48:01;7.63;;;4.25;;
55589;SDS011;41452;42.780;23.116;2024-02-21T00:50:27;8.00;;;4.63;;
55589;SDS011;41452;42.780;23.116;2024-02-21T00:52:52;8.43;;;4.30;;
55589;SDS011;41452;42.780;23.116;2024-02-21T00:55:18;5.07;;;3.58;;
55589;SDS011;41452;42.780;23.116;2024-02-21T00:57:43;6.95;;;4.07;;
55589;SDS011;41452;42.780;23.116;2024-02-21T01:00:09;6.63;;;3.85;;
55589;SDS011;41452;42.780;23.116;2024-02-21T01:02:34;7.70;;;4.68;;
55589;SDS011;41452;42.780;23.116;2024-02-21T01:07:25;9.73;;;4.25;;
55589;SDS011;41452;42.780;23.116;2024-02-21T01:09:50;6.85;;;4.30;;
55589;SDS011;41452;42.780;23.116;2024-02-21T01:12:16;7.07;;;4.47;;
55589;SDS011;41452;42.780;23.116;2024-02-21T01:14:42;10.02;;;4.65;;
55589;SDS011;41452;42.780;23.116;2024-02-21T01:17:07;8.43;;;4.30;;
55589;SDS011;41452;42.780;23.116;2024-02-21T01:19:33;8.45;;;4.65;;
55589;SDS011;41452;42.780;23.116;2024-02-21T01:21:58;8.52;;;4.45;;
55589;SDS011;41452;42.780;23.116;2024-02-21T01:24:24;8.68;;;4.15;;
55589;SDS011;41452;42.780;23.116;2024-02-21T01:26:49;7.75;;;4.72;;
55589;SDS011;41452;42.780;23.116;2024-02-21T01:29:14;7.75;;;4.40;;
55589;SDS011;41452;42.780;23.116;2024-02-21T01:31:40;7.18;;;4.10;;
55589;SDS011;41452;42.780;23.116;2024-02-21T01:34:05;8.93;;;4.60;;
55589;SDS011;41452;42.780;23.116;2024-02-21T01:36:30;8.95;;;4.15;;
55589;SDS011;41452;42.780;23.116;2024-02-21T01:38:56;9.23;;;4.60;;
55589;SDS011;41452;42.780;23.116;2024-02-21T01:41:21;8.35;;;4.70;;
55589;SDS011;41452;42.780;23.116;2024-02-21T01:43:46;7.22;;;4.25;;
55589;SDS011;41452;42.780;23.116;2024-02-21T01:46:12;8.00;;;4.43;;
55589;SDS011;41452;42.780;23.116;2024-02-21T01:48:37;9.02;;;4.43;;
55589;SDS011;41452;42.780;23.116;2024-02-21T01:51:03;11.40;;;5.03;;
55589;SDS011;41452;42.780;23.116;2024-02-21T01:53:30;8.77;;;4.25;;
55589;SDS011;41452;42.780;23.116;2024-02-21T01:55:57;11.38;;;4.47;;
55589;SDS011;41452;42.780;23.116;2024-02-21T01:58:23;7.18;;;3.75;;
55589;SDS011;41452;42.780;23.116;2024-02-21T02:00:49;7.40;;;3.55;;
55589;SDS011;41452;42.780;23.116;2024-02-21T02:03:16;7.97;;;4.53;;
55589;SDS011;41452;42.780;23.116;2024-02-21T02:05:49;11.25;;;6.05;;
55589;SDS011;41452;42.780;23.116;2024-02-21T02:08:15;12.43;;;6.47;;
55589;SDS011;41452;42.780;23.116;2024-02-21T02:10:42;13.45;;;7.50;;
55589;SDS011;41452;42.780;23.116;2024-02-21T02:13:07;11.35;;;6.35;;
55589;SDS011;41452;42.780;23.116;2024-02-21T02:18:09;9.80;;;4.82;;
55589;SDS011;41452;42.780;23.116;2024-02-21T02:20:35;9.00;;;5.03;;
55589;SDS011;41452;42.780;23.116;2024-02-21T02:28:03;9.85;;;4.88;;
55589;SDS011;41452;42.780;23.116;2024-02-21T02:30:35;11.48;;;5.03;;
55589;SDS011;41452;42.780;23.116;2024-02-21T02:33:04;11.23;;;6.10;;
55589;SDS011;41452;42.780;23.116;2024-02-21T02:35:30;8.88;;;5.10;;
55589;SDS011;41452;42.780;23.116;2024-02-21T02:37:56;11.35;;;5.75;;
55589;SDS011;41452;42.780;23.116;2024-02-21T02:40:21;10.00;;;5.78;;
55589;SDS011;41452;42.780;23.116;2024-02-21T02:42:47;11.60;;;5.72;;
55589;SDS011;41452;42.780;23.116;2024-02-21T02:45:14;12.90;;;7.25;;
55589;SDS011;41452;42.780;23.116;2024-02-21T02:47:40;17.58;;;7.95;;
55589;SDS011;41452;42.780;23.116;2024-02-21T02:50:06;17.17;;;8.25;;
55589;SDS011;41452;42.780;23.116;2024-02-21T02:52:32;15.23;;;7.72;;
55589;SDS011;41452;42.780;23.116;2024-02-21T02:54:57;12.80;;;6.82;;
55589;SDS011;41452;42.780;23.116;2024-02-21T02:57:22;18.42;;;8.35;;
55589;SDS011;41452;42.780;23.116;2024-02-21T02:59:48;15.82;;;7.82;;
55589;SDS011;41452;42.780;23.116;2024-02-21T03:02:14;20.75;;;7.97;;
55589;SDS011;41452;42.780;23.116;2024-02-21T03:04:40;17.85;;;7.65;;
55589;SDS011;41452;42.780;23.116;2024-02-21T03:07:06;17.98;;;8.23;;
55589;SDS011;41452;42.780;23.116;2024-02-21T03:09:31;13.23;;;7.55;;
55589;SDS011;41452;42.780;23.116;2024-02-21T03:11:56;13.40;;;7.00;;
55589;SDS011;41452;42.780;23.116;2024-02-21T03:14:27;12.77;;;7.38;;
55589;SDS011;41452;42.780;23.116;2024-02-21T03:16:55;13.77;;;7.50;;
55589;SDS011;41452;42.780;23.116;2024-02-21T03:19:21;11.25;;;6.78;;
55589;SDS011;41452;42.780;23.116;2024-02-21T03:21:47;16.48;;;8.00;;
55589;SDS011;41452;42.780;23.116;2024-02-21T03:24:13;16.02;;;8.10;;
55589;SDS011;41452;42.780;23.116;2024-02-21T03:26:38;15.90;;;8.82;;
55589;SDS011;41452;42.780;23.116;2024-02-21T03:29:03;22.05;;;9.27;;
55589;SDS011;41452;42.780;23.116;2024-02-21T03:31:29;16.60;;;7.60;;
55589;SDS011;41452;42.780;23.116;2024-02-21T03:33:54;15.63;;;7.95;;
55589;SDS011;41452;42.780;23.116;2024-02-21T03:36:19;22.30;;;8.35;;
55589;SDS011;41452;42.780;23.116;2024-02-21T03:38:45;22.73;;;8.90;;
55589;SDS011;41452;42.780;23.116;2024-02-21T03:41:10;15.95;;;8.18;;
55589;SDS011;41452;42.780;23.116;2024-02-21T03:43:37;18.60;;;9.38;;
55589;SDS011;41452;42.780;23.116;2024-02-21T03:46:03;15.90;;;7.95;;
55589;SDS011;41452;42.780;23.116;2024-02-21T03:48:28;16.00;;;7.22;;
55589;SDS011;41452;42.780;23.116;2024-02-21T03:50:54;14.35;;;7.40;;
55589;SDS011;41452;42.780;23.116;2024-02-21T03:53:19;13.95;;;7.57;;
55589;SDS011;41452;42.780;23.116;2024-02-21T03:55:44;12.13;;;6.18;;
55589;SDS011;41452;42.780;23.116;2024-02-21T03:58:10;10.07;;;6.20;;
55589;SDS011;41452;42.780;23.116;2024-02-21T04:00:35;9.88;;;5.20;;
55589;SDS011;41452;42.780;23.116;2024-02-21T04:03:00;14.13;;;6.95;;
55589;SDS011;41452;42.780;23.116;2024-02-21T04:05:26;15.88;;;6.10;;
55589;SDS011;41452;42.780;23.116;2024-02-21T04:07:51;14.73;;;7.30;;
55589;SDS011;41452;42.780;23.116;2024-02-21T04:10:17;12.82;;;7.18;;
55589;SDS011;41452;42.780;23.116;2024-02-21T04:12:42;10.43;;;6.00;;
55589;SDS011;41452;42.780;23.116;2024-02-21T04:15:07;15.60;;;6.88;;
55589;SDS011;41452;42.780;23.116;2024-02-21T04:17:34;13.80;;;6.78;;
55589;SDS011;41452;42.780;23.116;2024-02-21T04:20:03;12.63;;;6.65;;
55589;SDS011;41452;42.780;23.116;2024-02-21T04:22:30;11.65;;;6.35;;
55589;SDS011;41452;42.780;23.116;2024-02-21T04:24:59;14.45;;;7.03;;
55589;SDS011;41452;42.780;23.116;2024-02-21T04:27:27;14.15;;;7.35;;
55589;SDS011;41452;42.780;23.116;2024-02-21T04:29:53;10.18;;;5.78;;
55589;SDS011;41452;42.780;23.116;2024-02-21T04:32:18;11.63;;;6.50;;
55589;SDS011;41452;42.780;23.116;2024-02-21T04:34:44;11.90;;;6.45;;
55589;SDS011;41452;42.780;23.116;2024-02-21T04:37:09;15.38;;;6.90;;
55589;SDS011;41452;42.780;23.116;2024-02-21T04:39:35;13.80;;;6.43;;
55589;SDS011;41452;42.780;23.116;2024-02-21T04:42:00;14.27;;;7.40;;
55589;SDS011;41452;42.780;23.116;2024-02-21T04:44:26;11.25;;;6.20;;
55589;SDS011;41452;42.780;23.116;2024-02-21T04:46:51;11.43;;;5.93;;
55589;SDS011;41452;42.780;23.116;2024-02-21T04:49:17;10.80;;;6.32;;
55589;SDS011;41452;42.780;23.116;2024-02-21T04:51:42;13.05;;;7.35;;
55589;SDS011;41452;42.780;23.116;2024-02-21T04:54:08;13.85;;;6.90;;
55589;SDS011;41452;42.780;23.116;2024-02-21T04:56:34;11.75;;;5.97;;
55589;SDS011;41452;42.780;23.116;2024-02-21T04:58:59;13.50;;;6.72;;
55589;SDS011;41452;42.780;23.116;2024-02-21T05:01:25;11.30;;;6.10;;
55589;SDS011;41452;42.780;23.116;2024-02-21T05:03:50;11.68;;;6.40;;
55589;SDS011;41452;42.780;23.116;2024-02-21T05:06:15;14.32;;;7.50;;
55589;SDS011;41452;42.780;23.116;2024-02-21T05:08:41;13.82;;;7.50;;
55589;SDS011;41452;42.780;23.116;2024-02-21T05:11:06;16.08;;;7.70;;
55589;SDS011;41452;42.780;23.116;2024-02-21T05:13:32;13.63;;;7.28;;
55589;SDS011;41452;42.780;23.116;2024-02-21T05:15:57;16.20;;;7.82;;
55589;SDS011;41452;42.780;23.116;2024-02-21T05:18:26;15.68;;;7.32;;
55589;SDS011;41452;42.780;23.116;2024-02-21T05:20:52;13.30;;;7.40;;
55589;SDS011;41452;42.780;23.116;2024-02-21T05:23:17;20.67;;;8.82;;
55589;SDS011;41452;42.780;23.116;2024-02-21T05:25:42;23.13;;;11.30;;
55589;SDS011;41452;42.780;23.116;2024-02-21T05:28:08;24.98;;;11.95;;
55589;SDS011;41452;42.780;23.116;2024-02-21T05:30:33;21.38;;;10.02;;
55589;SDS011;41452;42.780;23.116;2024-02-21T05:32:58;19.17;;;10.55;;
55589;SDS011;41452;42.780;23.116;2024-02-21T05:35:27;26.13;;;12.85;;
55589;SDS011;41452;42.780;23.116;2024-02-21T05:37:53;21.27;;;11.93;;
55589;SDS011;41452;42.780;23.116;2024-02-21T05:40:19;18.48;;;10.35;;
55589;SDS011;41452;42.780;23.116;2024-02-21T05:42:44;19.35;;;9.02;;
55589;SDS011;41452;42.780;23.116;2024-02-21T05:45:09;17.27;;;9.43;;
55589;SDS011;41452;42.780;23.116;2024-02-21T05:47:35;16.88;;;8.90;;
55589;SDS011;41452;42.780;23.116;2024-02-21T05:50:00;13.95;;;8.18;;
55589;SDS011;41452;42.780;23.116;2024-02-21T05:52:26;15.52;;;9.30;;
55589;SDS011;41452;42.780;23.116;2024-02-21T05:54:51;16.88;;;8.77;;
55589;SDS011;41452;42.780;23.116;2024-02-21T05:57:19;15.52;;;8.35;;
55589;SDS011;41452;42.780;23.116;2024-02-21T05:59:45;17.45;;;8.57;;
55589;SDS011;41452;42.780;23.116;2024-02-21T06:02:10;17.05;;;8.90;;
55589;SDS011;41452;42.780;23.116;2024-02-21T06:04:36;19.02;;;9.20;;
55589;SDS011;41452;42.780;23.116;2024-02-21T06:07:01;14.98;;;8.77;;
55589;SDS011;41452;42.780;23.116;2024-02-21T06:09:27;16.00;;;9.68;;
55589;SDS011;41452;42.780;23.116;2024-02-21T06:11:53;18.00;;;9.68;;
55589;SDS011;41452;42.780;23.116;2024-02-21T06:14:19;22.80;;;9.63;;
55589;SDS011;41452;42.780;23.116;2024-02-21T06:16:44;19.02;;;9.32;;
55589;SDS011;41452;42.780;23.116;2024-02-21T06:19:10;20.25;;;10.30;;
55589;SDS011;41452;42.780;23.116;2024-02-21T06:21:35;17.67;;;9.20;;
55589;SDS011;41452;42.780;23.116;2024-02-21T06:24:01;20.73;;;11.07;;
55589;SDS011;41452;42.780;23.116;2024-02-21T06:26:27;21.88;;;11.38;;
55589;SDS011;41452;42.780;23.116;2024-02-21T06:28:52;25.70;;;12.65;;
55589;SDS011;41452;42.780;23.116;2024-02-21T06:31:18;18.55;;;10.20;;
55589;SDS011;41452;42.780;23.116;2024-02-21T06:33:43;27.55;;;11.45;;
55589;SDS011;41452;42.780;23.116;2024-02-21T06:36:08;23.40;;;11.52;;
55589;SDS011;41452;42.780;23.116;2024-02-21T06:38:34;21.13;;;10.70;;
55589;SDS011;41452;42.780;23.116;2024-02-21T06:40:59;19.90;;;10.32;;
55589;SDS011;41452;42.780;23.116;2024-02-21T06:43:25;24.92;;;9.93;;
55589;SDS011;41452;42.780;23.116;2024-02-21T06:45:51;22.42;;;11.30;;
55589;SDS011;41452;42.780;23.116;2024-02-21T06:48:17;20.02;;;10.90;;
55589;SDS011;41452;42.780;23.116;2024-02-21T06:50:43;22.80;;;12.80;;
55589;SDS011;41452;42.780;23.116;2024-02-21T06:53:08;28.20;;;13.35;;
55589;SDS011;41452;42.780;23.116;2024-02-21T06:55:34;28.40;;;13.13;;
55589;SDS011;41452;42.780;23.116;2024-02-21T06:57:59;25.63;;;11.65;;
55589;SDS011;41452;42.780;23.116;2024-02-21T07:00:24;21.65;;;11.57;;
55589;SDS011;41452;42.780;23.116;2024-02-21T07:02:51;22.83;;;11.82;;
55589;SDS011;41452;42.780;23.116;2024-02-21T07:05:16;23.38;;;11.35;;
55589;SDS011;41452;42.780;23.116;2024-02-21T07:07:42;24.75;;;12.90;;
55589;SDS011;41452;42.780;23.116;2024-02-21T07:10:07;21.45;;;11.57;;
55589;SDS011;41452;42.780;23.116;2024-02-21T07:12:33;19.80;;;9.90;;
55589;SDS011;41452;42.780;23.116;2024-02-21T07:15:00;18.38;;;10.60;;
55589;SDS011;41452;42.780;23.116;2024-02-21T07:17:25;23.23;;;11.40;;
55589;SDS011;41452;42.780;23.116;2024-02-21T07:19:50;35.17;;;18.23;;
55589;SDS011;41452;42.780;23.116;2024-02-21T07:22:16;26.42;;;14.35;;
55589;SDS011;41452;42.780;23.116;2024-02-21T07:24:41;24.95;;;11.75;;
55589;SDS011;41452;42.780;23.116;2024-02-21T07:27:07;29.92;;;15.85;;
55589;SDS011;41452;42.780;23.116;2024-02-21T07:29:32;23.10;;;14.45;;
55589;SDS011;41452;42.780;23.116;2024-02-21T07:31:57;19.15;;;11.40;;
55589;SDS011;41452;42.780;23.116;2024-02-21T07:34:23;31.30;;;17.35;;
55589;SDS011;41452;42.780;23.116;2024-02-21T07:36:48;28.50;;;20.33;;
55589;SDS011;41452;42.780;23.116;2024-02-21T07:39:13;19.23;;;11.98;;
55589;SDS011;41452;42.780;23.116;2024-02-21T07:41:39;36.38;;;22.38;;
55589;SDS011;41452;42.780;23.116;2024-02-21T07:44:06;30.20;;;18.88;;
55589;SDS011;41452;42.780;23.116;2024-02-21T07:46:31;20.75;;;11.35;;
55589;SDS011;41452;42.780;23.116;2024-02-21T07:48:56;19.20;;;10.80;;
55589;SDS011;41452;42.780;23.116;2024-02-21T07:51:22;21.52;;;10.80;;
55589;SDS011;41452;42.780;23.116;2024-02-21T07:53:47;20.13;;;10.85;;
55589;SDS011;41452;42.780;23.116;2024-02-21T07:56:13;18.42;;;11.05;;
55589;SDS011;41452;42.780;23.116;2024-02-21T07:58:40;19.60;;;11.63;;
55589;SDS011;41452;42.780;23.116;2024-02-21T08:01:06;21.23;;;11.27;;
55589;SDS011;41452;42.780;23.116;2024-02-21T08:03:32;22.30;;;12.00;;
55589;SDS011;41452;42.780;23.116;2024-02-21T08:05:57;17.88;;;9.98;;
55589;SDS011;41452;42.780;23.116;2024-02-21T08:08:23;18.30;;;10.55;;
55589;SDS011;41452;42.780;23.116;2024-02-21T08:10:51;22.83;;;12.45;;
55589;SDS011;41452;42.780;23.116;2024-02-21T08:13:16;22.40;;;12.43;;
55589;SDS011;41452;42.780;23.116;2024-02-21T08:15:41;21.95;;;11.27;;
55589;SDS011;41452;42.780;23.116;2024-02-21T08:18:07;20.40;;;11.57;;
55589;SDS011;41452;42.780;23.116;2024-02-21T08:20:33;23.27;;;11.77;;
55589;SDS011;41452;42.780;23.116;2024-02-21T08:22:58;24.27;;;13.05;;
55589;SDS011;41452;42.780;23.116;2024-02-21T08:25:24;20.85;;;12.13;;
55589;SDS011;41452;42.780;23.116;2024-02-21T08:27:49;25.48;;;11.50;;
55589;SDS011;41452;42.780;23.116;2024-02-21T08:30:16;21.08;;;12.00;;
55589;SDS011;41452;42.780;23.116;2024-02-21T08:32:42;18.95;;;10.43;;
55589;SDS011;41452;42.780;23.116;2024-02-21T08:35:07;20.77;;;12.13;;
55589;SDS011;41452;42.780;23.116;2024-02-21T08:37:33;24.45;;;13.02;;
55589;SDS011;41452;42.780;23.116;2024-02-21T08:39:58;22.80;;;14.88;;
55589;SDS011;41452;42.780;23.116;2024-02-21T08:42:24;23.77;;;12.43;;
55589;SDS011;41452;42.780;23.116;2024-02-21T08:44:49;19.98;;;12.45;;
55589;SDS011;41452;42.780;23.116;2024-02-21T08:47:15;23.73;;;13.38;;
55589;SDS011;41452;42.780;23.116;2024-02-21T08:49:40;18.73;;;11.32;;
55589;SDS011;41452;42.780;23.116;2024-02-21T08:52:06;23.45;;;12.35;;
55589;SDS011;41452;42.780;23.116;2024-02-21T08:54:31;27.17;;;16.40;;
55589;SDS011;41452;42.780;23.116;2024-02-21T08:57:00;19.00;;;11.65;;
55589;SDS011;41452;42.780;23.116;2024-02-21T08:59:25;20.40;;;11.77;;
55589;SDS011;41452;42.780;23.116;2024-02-21T09:01:51;24.33;;;12.52;;
55589;SDS011;41452;42.780;23.116;2024-02-21T09:04:19;20.65;;;12.32;;
55589;SDS011;41452;42.780;23.116;2024-02-21T09:06:45;19.10;;;11.57;;
55589;SDS011;41452;42.780;23.116;2024-02-21T09:09:11;21.02;;;11.30;;
55589;SDS011;41452;42.780;23.116;2024-02-21T09:11:37;19.63;;;11.30;;
55589;SDS011;41452;42.780;23.116;2024-02-21T09:14:03;18.65;;;10.70;;
55589;SDS011;41452;42.780;23.116;2024-02-21T09:16:30;20.35;;;11.52;;
55589;SDS011;41452;42.780;23.116;2024-02-21T09:18:56;62.75;;;32.00;;
55589;SDS011;41452;42.780;23.116;2024-02-21T09:21:22;27.13;;;13.25;;
55589;SDS011;41452;42.780;23.116;2024-02-21T09:23:48;58.67;;;27.30;;
55589;SDS011;41452;42.780;23.116;2024-02-21T09:26:13;27.13;;;13.95;;
55589;SDS011;41452;42.780;23.116;2024-02-21T09:28:41;19.60;;;12.07;;
55589;SDS011;41452;42.780;23.116;2024-02-21T09:31:06;37.83;;;21.17;;
55589;SDS011;41452;42.780;23.116;2024-02-21T09:33:32;13.18;;;7.68;;
55589;SDS011;41452;42.780;23.116;2024-02-21T09:35:57;17.48;;;9.75;;
55589;SDS011;41452;42.780;23.116;2024-02-21T09:38:22;16.67;;;9.23;;
55589;SDS011;41452;42.780;23.116;2024-02-21T09:40:52;16.35;;;10.20;;
55589;SDS011;41452;42.780;23.116;2024-02-21T09:43:36;15.75;;;9.45;;
55589;SDS011;41452;42.780;23.116;2024-02-21T09:46:05;14.93;;;9.05;;
55589;SDS011;41452;42.780;23.116;2024-02-21T09:48:49;16.13;;;9.85;;
55589;SDS011;41452;42.780;23.116;2024-02-21T09:51:23;15.85;;;9.10;;
55589;SDS011;41452;42.780;23.116;2024-02-21T09:53:53;17.27;;;9.85;;
55589;SDS011;41452;42.780;23.116;2024-02-21T09:56:19;15.85;;;8.60;;
55589;SDS011;41452;42.780;23.116;2024-02-21T09:58:46;12.88;;;8.20;;
55589;SDS011;41452;42.780;23.116;2024-02-21T10:01:12;11.60;;;7.47;;
55589;SDS011;41452;42.780;23.116;2024-02-21T10:03:38;16.33;;;9.30;;
55589;SDS011;41452;42.780;23.116;2024-02-21T10:06:03;14.20;;;8.50;;
55589;SDS011;41452;42.780;23.116;2024-02-21T10:08:28;18.25;;;8.98;;
55589;SDS011;41452;42.780;23.116;2024-02-21T10:10:54;13.57;;;8.60;;
55589;SDS011;41452;42.780;23.116;2024-02-21T10:13:27;14.00;;;7.82;;
55589;SDS011;41452;42.780;23.116;2024-02-21T10:16:04;11.50;;;6.72;;
55589;SDS011;41452;42.780;23.116;2024-02-21T10:18:30;11.82;;;5.38;;
55589;SDS011;41452;42.780;23.116;2024-02-21T10:21:00;11.93;;;6.57;;
55589;SDS011;41452;42.780;23.116;2024-02-21T10:23:29;9.73;;;6.25;;
55589;SDS011;41452;42.780;23.116;2024-02-21T10:26:04;11.65;;;6.30;;
55589;SDS011;41452;42.780;23.116;2024-02-21T10:28:30;10.20;;;6.10;;
55589;SDS011;41452;42.780;23.116;2024-02-21T10:30:56;10.05;;;5.95;;
55589;SDS011;41452;42.780;23.116;2024-02-21T10:33:21;10.85;;;6.28;;
55589;SDS011;41452;42.780;23.116;2024-02-21T10:35:47;10.10;;;5.50;;
55589;SDS011;41452;42.780;23.116;2024-02-21T10:38:12;9.98;;;5.60;;
55589;SDS011;41452;42.780;23.116;2024-02-21T10:40:38;9.50;;;5.32;;
55589;SDS011;41452;42.780;23.116;2024-02-21T10:43:03;9.13;;;5.68;;
55589;SDS011;41452;42.780;23.116;2024-02-21T10:45:34;15.25;;;6.28;;
55589;SDS011;41452;42.780;23.116;2024-02-21T10:48:22;10.57;;;5.90;;
55589;SDS011;41452;42.780;23.116;2024-02-21T10:56:16;6.97;;;5.22;;
55589;SDS011;41452;42.780;23.116;2024-02-21T10:58:50;7.38;;;4.60;;
55589;SDS011;41452;42.780;23.116;2024-02-21T11:01:16;9.25;;;5.53;;
55589;SDS011;41452;42.780;23.116;2024-02-21T11:03:43;7.97;;;5.50;;
55589;SDS011;41452;42.780;23.116;2024-02-21T11:06:13;10.30;;;5.68;;
55589;SDS011;41452;42.780;23.116;2024-02-21T11:08:40;9.63;;;6.03;;
55589;SDS011;41452;42.780;23.116;2024-02-21T11:11:05;11.73;;;5.20;;
55589;SDS011;41452;42.780;23.116;2024-02-21T11:13:31;7.28;;;4.47;;
55589;SDS011;41452;42.780;23.116;2024-02-21T11:16:09;10.13;;;5.55;;
55589;SDS011;41452;42.780;23.116;2024-02-21T11:18:36;7.20;;;4.50;;
55589;SDS011;41452;42.780;23.116;2024-02-21T11:21:02;9.45;;;5.05;;
55589;SDS011;41452;42.780;23.116;2024-02-21T11:23:31;7.45;;;5.30;;
55589;SDS011;41452;42.780;23.116;2024-02-21T11:26:09;8.27;;;5.32;;
55589;SDS011;41452;42.780;23.116;2024-02-21T11:28:36;8.30;;;5.40;;
55589;SDS011;41452;42.780;23.116;2024-02-21T11:31:09;11.20;;;5.75;;
55589;SDS011;41452;42.780;23.116;2024-02-21T11:33:39;11.90;;;6.15;;
55589;SDS011;41452;42.780;23.116;2024-02-21T11:36:06;8.70;;;4.70;;
55589;SDS011;41452;42.780;23.116;2024-02-21T11:38:31;11.70;;;5.60;;
55589;SDS011;41452;42.780;23.116;2024-02-21T11:40:56;11.23;;;5.95;;
55589;SDS011;41452;42.780;23.116;2024-02-21T11:43:23;11.73;;;5.93;;
55589;SDS011;41452;42.780;23.116;2024-02-21T12:08:43;9.77;;;5.85;;
55589;SDS011;41452;42.780;23.116;2024-02-21T12:11:21;11.43;;;6.88;;
55589;SDS011;41452;42.780;23.116;2024-02-21T12:14:08;11.48;;;6.28;;
55589;SDS011;41452;42.780;23.116;2024-02-21T12:16:34;9.63;;;6.00;;
55589;SDS011;41452;42.780;23.116;2024-02-21T12:19:02;13.98;;;7.65;;
55589;SDS011;41452;42.780;23.116;2024-02-21T12:21:33;11.13;;;6.50;;
55589;SDS011;41452;42.780;23.116;2024-02-21T12:24:22;9.18;;;5.72;;
55589;SDS011;41452;42.780;23.116;2024-02-21T12:26:51;8.80;;;5.40;;
55589;SDS011;41452;42.780;23.116;2024-02-21T12:29:20;8.98;;;5.05;;
55589;SDS011;41452;42.780;23.116;2024-02-21T12:31:46;8.32;;;5.40;;
55589;SDS011;41452;42.780;23.116;2024-02-21T12:34:12;12.88;;;5.45;;
55589;SDS011;41452;42.780;23.116;2024-02-21T12:36:41;9.43;;;5.45;;
55589;SDS011;41452;42.780;23.116;2024-02-21T12:39:08;12.38;;;6.60;;
55589;SDS011;41452;42.780;23.116;2024-02-21T12:41:34;11.07;;;6.50;;
55589;SDS011;41452;42.780;23.116;2024-02-21T12:44:03;10.15;;;5.93;;
55589;SDS011;41452;42.780;23.116;2024-02-21T12:46:29;11.63;;;6.72;;
55589;SDS011;41452;42.780;23.116;2024-02-21T12:48:55;9.95;;;5.40;;
55589;SDS011;41452;42.780;23.116;2024-02-21T12:51:20;9.05;;;4.97;;
55589;SDS011;41452;42.780;23.116;2024-02-21T12:53:47;9.43;;;4.85;;
55589;SDS011;41452;42.780;23.116;2024-02-21T12:56:14;11.10;;;6.43;;
55589;SDS011;41452;42.780;23.116;2024-02-21T12:58:40;8.13;;;5.15;;
55589;SDS011;41452;42.780;23.116;2024-02-21T13:01:05;7.28;;;4.65;;
55589;SDS011;41452;42.780;23.116;2024-02-21T13:03:30;6.43;;;4.47;;
55589;SDS011;41452;42.780;23.116;2024-02-21T13:05:56;9.10;;;5.65;;
55589;SDS011;41452;42.780;23.116;2024-02-21T13:08:21;9.05;;;4.93;;
55589;SDS011;41452;42.780;23.116;2024-02-21T13:10:48;12.75;;;5.57;;
55589;SDS011;41452;42.780;23.116;2024-02-21T13:13:14;11.88;;;5.50;;
55589;SDS011;41452;42.780;23.116;2024-02-21T13:15:39;10.90;;;5.55;;
55589;SDS011;41452;42.780;23.116;2024-02-21T13:18:08;9.50;;;5.93;;
55589;SDS011;41452;42.780;23.116;2024-02-21T13:20:33;10.90;;;5.45;;
55589;SDS011;41452;42.780;23.116;2024-02-21T13:22:58;10.18;;;5.93;;
55589;SDS011;41452;42.780;23.116;2024-02-21T13:25:24;13.52;;;7.38;;
55589;SDS011;41452;42.780;23.116;2024-02-21T13:27:49;10.02;;;5.95;;
55589;SDS011;41452;42.780;23.116;2024-02-21T13:30:15;11.80;;;6.68;;
55589;SDS011;41452;42.780;23.116;2024-02-21T13:32:43;8.63;;;5.18;;
55589;SDS011;41452;42.780;23.116;2024-02-21T13:35:11;11.95;;;5.68;;
55589;SDS011;41452;42.780;23.116;2024-02-21T13:37:37;12.88;;;5.97;;
55589;SDS011;41452;42.780;23.116;2024-02-21T13:40:06;10.90;;;5.65;;
55589;SDS011;41452;42.780;23.116;2024-02-21T13:42:34;9.50;;;5.60;;
55589;SDS011;41452;42.780;23.116;2024-02-21T13:45:00;10.38;;;5.93;;
55589;SDS011;41452;42.780;23.116;2024-02-21T13:47:26;8.88;;;5.68;;
55589;SDS011;41452;42.780;23.116;2024-02-21T13:49:51;14.50;;;7.20;;
55589;SDS011;41452;42.780;23.116;2024-02-21T13:52:17;12.02;;;6.05;;
55589;SDS011;41452;42.780;23.116;2024-02-21T13:54:45;10.93;;;6.13;;
55589;SDS011;41452;42.780;23.116;2024-02-21T13:57:10;8.65;;;4.53;;
55589;SDS011;41452;42.780;23.116;2024-02-21T13:59:37;11.15;;;6.50;;
55589;SDS011;41452;42.780;23.116;2024-02-21T14:02:02;10.43;;;5.65;;
55589;SDS011;41452;42.780;23.116;2024-02-21T14:04:27;9.25;;;5.30;;
55589;SDS011;41452;42.780;23.116;2024-02-21T14:06:55;9.88;;;5.40;;
55589;SDS011;41452;42.780;23.116;2024-02-21T14:09:20;9.07;;;5.82;;
55589;SDS011;41452;42.780;23.116;2024-02-21T14:11:45;11.15;;;5.72;;
55589;SDS011;41452;42.780;23.116;2024-02-21T14:14:11;9.90;;;5.57;;
55589;SDS011;41452;42.780;23.116;2024-02-21T14:16:37;10.75;;;5.88;;
55589;SDS011;41452;42.780;23.116;2024-02-21T14:19:02;8.70;;;4.70;;
55589;SDS011;41452;42.780;23.116;2024-02-21T14:21:27;10.32;;;5.80;;
55589;SDS011;41452;42.780;23.116;2024-02-21T14:23:53;9.27;;;5.13;;
55589;SDS011;41452;42.780;23.116;2024-02-21T14:26:19;8.68;;;5.90;;
55589;SDS011;41452;42.780;23.116;2024-02-21T14:28:45;10.07;;;5.32;;
55589;SDS011;41452;42.780;23.116;2024-02-21T14:31:11;10.73;;;5.65;;
55589;SDS011;41452;42.780;23.116;2024-02-21T14:33:36;13.55;;;7.03;;
55589;SDS011;41452;42.780;23.116;2024-02-21T14:36:02;9.40;;;5.72;;
55589;SDS011;41452;42.780;23.116;2024-02-21T14:38:28;14.20;;;5.40;;
55589;SDS011;41452;42.780;23.116;2024-02-21T14:40:54;11.43;;;6.10;;
55589;SDS011;41452;42.780;23.116;2024-02-21T14:43:19;10.95;;;5.50;;
55589;SDS011;41452;42.780;23.116;2024-02-21T14:45:46;9.07;;;5.05;;
55589;SDS011;41452;42.780;23.116;2024-02-21T14:48:12;11.48;;;6.60;;
55589;SDS011;41452;42.780;23.116;2024-02-21T14:50:38;17.38;;;9.98;;
55589;SDS011;41452;42.780;23.116;2024-02-21T14:53:04;13.85;;;7.70;;
55589;SDS011;41452;42.780;23.116;2024-02-21T14:55:29;14.60;;;10.52;;